CYHU/YHU METAR and TAF weather

Enter ICAO airport designator
Station Type Date Time Source
CYHU METAR 2020/07/12 06:00 UTC NOAA

CYHU 120600Z AUTO 19004KT 9SM CLR 22/21 A2947 RMK SLP980 DENSITY ALT 1300FT


Station Type Date Time Source
CYHU Decoded METAR 2020/07/12 06:00 UTC NOAA

Saint Hubert Airport , Canada (CYHU) 45-31N 073-25W
Jul 12, 2020 - 02:00 AM EDT / 2020.07.12 0600 UTC
Wind: from the S (190 degrees) at 5 MPH (4 KT):0
Visibility: 9 mile(s):0
Sky conditions: clear
Temperature: 71 F (22 C)
Dew Point: 69 F (21 C)
Relative Humidity: 94%
Pressure (altimeter): 29.47 in. Hg (997 hPa)
ob: CYHU 120600Z AUTO 19004KT 9SM CLR 22/21 A2947 RMK SLP980 DENSITY ALT 1300FT
cycle: 6

Station Type Date Time Source
CYHU TAF 2020/07/12 06:42 UTC NOAA

TAF CYHU 120538Z 1206/1306 20006KT P6SM SCT015 BKN025 OVC080
TEMPO 1206/1208 5SM -SHRA BR BKN008 OVC015
FM120800 23008KT 5SM -SHRA BR OVC008
TEMPO 1208/1213 P6SM NSW OVC012
FM121300 27012G22KT P6SM OVC015
FM121600 28010G20KT P6SM BKN030
BECMG 1219/1221 26010G20KT
FM130300 25010KT P6SM BKN030
RMK FCST BASED ON AUTO OBS. NXT FCST BY 121200Z

Example: see airport list